sensor_id;sensor_type;location;lat;lon;timestamp;temperature;humidity
57218;DHT22;43078;52.972;6.482;2023-07-20T00:01:03;18.40;91.80
57218;DHT22;43078;52.972;6.482;2023-07-20T00:03:29;18.40;91.80
57218;DHT22;43078;52.972;6.482;2023-07-20T00:05:55;18.40;91.80
57218;DHT22;43078;52.972;6.482;2023-07-20T00:08:20;18.30;91.90
57218;DHT22;43078;52.972;6.482;2023-07-20T00:10:46;18.30;91.90
57218;DHT22;43078;52.972;6.482;2023-07-20T00:13:11;18.30;91.90
57218;DHT22;43078;52.972;6.482;2023-07-20T00:15:37;18.30;91.90
57218;DHT22;43078;52.972;6.482;2023-07-20T00:18:06;18.30;92.00
57218;DHT22;43078;52.972;6.482;2023-07-20T00:20:32;18.20;92.00
57218;DHT22;43078;52.972;6.482;2023-07-20T00:22:58;18.20;92.00
57218;DHT22;43078;52.972;6.482;2023-07-20T00:25:24;18.20;91.80
57218;DHT22;43078;52.972;6.482;2023-07-20T00:27:50;18.20;92.00
57218;DHT22;43078;52.972;6.482;2023-07-20T00:30:19;18.20;92.00
57218;DHT22;43078;52.972;6.482;2023-07-20T00:32:45;18.20;92.10
57218;DHT22;43078;52.972;6.482;2023-07-20T00:35:13;18.20;92.00
57218;DHT22;43078;52.972;6.482;2023-07-20T00:37:40;18.20;92.10
57218;DHT22;43078;52.972;6.482;2023-07-20T00:40:06;18.20;92.10
57218;DHT22;43078;52.972;6.482;2023-07-20T00:42:33;18.20;92.10
57218;DHT22;43078;52.972;6.482;2023-07-20T00:44:59;18.20;92.20
57218;DHT22;43078;52.972;6.482;2023-07-20T00:47:27;18.20;92.00
57218;DHT22;43078;52.972;6.482;2023-07-20T00:49:53;18.10;92.00
57218;DHT22;43078;52.972;6.482;2023-07-20T00:52:21;18.10;91.80
57218;DHT22;43078;52.972;6.482;2023-07-20T00:54:49;18.10;91.90
57218;DHT22;43078;52.972;6.482;2023-07-20T00:57:15;18.10;92.10
57218;DHT22;43078;52.972;6.482;2023-07-20T00:59:41;18.00;91.90
57218;DHT22;43078;52.972;6.482;2023-07-20T01:02:07;18.00;91.80
57218;DHT22;43078;52.972;6.482;2023-07-20T01:04:34;18.00;92.00
57218;DHT22;43078;52.972;6.482;2023-07-20T01:07:12;18.00;92.10
57218;DHT22;43078;52.972;6.482;2023-07-20T01:09:44;17.90;91.90
57218;DHT22;43078;52.972;6.482;2023-07-20T01:12:26;17.90;92.10
57218;DHT22;43078;52.972;6.482;2023-07-20T01:14:53;17.90;91.90
57218;DHT22;43078;52.972;6.482;2023-07-20T01:17:19;17.90;92.30
57218;DHT22;43078;52.972;6.482;2023-07-20T01:19:45;17.90;92.30
57218;DHT22;43078;52.972;6.482;2023-07-20T01:25:02;17.80;92.00
57218;DHT22;43078;52.972;6.482;2023-07-20T01:33:15;17.70;92.00
57218;DHT22;43078;52.972;6.482;2023-07-20T01:35:43;17.60;92.20
57218;DHT22;43078;52.972;6.482;2023-07-20T01:38:11;17.60;92.20
57218;DHT22;43078;52.972;6.482;2023-07-20T01:40:38;17.60;92.30
57218;DHT22;43078;52.972;6.482;2023-07-20T01:43:04;17.60;92.40
57218;DHT22;43078;52.972;6.482;2023-07-20T01:45:30;17.50;92.50
57218;DHT22;43078;52.972;6.482;2023-07-20T01:47:55;17.50;92.50
57218;DHT22;43078;52.972;6.482;2023-07-20T01:50:21;17.50;92.50
57218;DHT22;43078;52.972;6.482;2023-07-20T01:52:47;17.50;92.50
57218;DHT22;43078;52.972;6.482;2023-07-20T01:55:13;17.40;92.50
57218;DHT22;43078;52.972;6.482;2023-07-20T01:57:39;17.40;92.60
57218;DHT22;43078;52.972;6.482;2023-07-20T02:00:08;17.40;92.60
57218;DHT22;43078;52.972;6.482;2023-07-20T02:02:38;17.30;92.60
57218;DHT22;43078;52.972;6.482;2023-07-20T02:05:03;17.30;92.70
57218;DHT22;43078;52.972;6.482;2023-07-20T02:07:29;17.20;92.60
57218;DHT22;43078;52.972;6.482;2023-07-20T02:09:55;17.20;92.60
57218;DHT22;43078;52.972;6.482;2023-07-20T02:12:20;17.20;92.70
57218;DHT22;43078;52.972;6.482;2023-07-20T02:14:46;17.10;92.70
57218;DHT22;43078;52.972;6.482;2023-07-20T02:17:13;17.10;92.60
57218;DHT22;43078;52.972;6.482;2023-07-20T02:19:40;17.10;92.70
57218;DHT22;43078;52.972;6.482;2023-07-20T02:22:05;17.00;92.80
57218;DHT22;43078;52.972;6.482;2023-07-20T02:24:33;17.00;92.80
57218;DHT22;43078;52.972;6.482;2023-07-20T02:26:58;17.00;92.80
57218;DHT22;43078;52.972;6.482;2023-07-20T02:29:24;17.00;92.90
57218;DHT22;43078;52.972;6.482;2023-07-20T02:31:49;16.90;92.90
57218;DHT22;43078;52.972;6.482;2023-07-20T02:34:15;16.90;92.90
57218;DHT22;43078;52.972;6.482;2023-07-20T02:36:41;16.90;92.90
57218;DHT22;43078;52.972;6.482;2023-07-20T02:39:08;16.90;92.80
57218;DHT22;43078;52.972;6.482;2023-07-20T02:41:34;16.80;92.80
57218;DHT22;43078;52.972;6.482;2023-07-20T02:44:00;16.80;92.80
57218;DHT22;43078;52.972;6.482;2023-07-20T02:46:26;16.80;92.90
57218;DHT22;43078;52.972;6.482;2023-07-20T02:48:52;16.80;93.00
57218;DHT22;43078;52.972;6.482;2023-07-20T02:51:17;16.80;92.90
57218;DHT22;43078;52.972;6.482;2023-07-20T02:53:43;16.70;92.90
57218;DHT22;43078;52.972;6.482;2023-07-20T02:56:09;16.70;92.90
57218;DHT22;43078;52.972;6.482;2023-07-20T02:58:34;16.60;92.90
57218;DHT22;43078;52.972;6.482;2023-07-20T03:01:04;16.60;92.90
57218;DHT22;43078;52.972;6.482;2023-07-20T03:03:29;16.60;93.00
57218;DHT22;43078;52.972;6.482;2023-07-20T03:05:55;16.60;93.00
57218;DHT22;43078;52.972;6.482;2023-07-20T03:08:24;16.50;93.00
57218;DHT22;43078;52.972;6.482;2023-07-20T03:10:50;16.50;93.10
57218;DHT22;43078;52.972;6.482;2023-07-20T03:13:16;16.50;93.00
57218;DHT22;43078;52.972;6.482;2023-07-20T03:15:41;16.50;93.10
57218;DHT22;43078;52.972;6.482;2023-07-20T03:18:07;16.40;93.40
57218;DHT22;43078;52.972;6.482;2023-07-20T03:20:32;16.40;93.10
57218;DHT22;43078;52.972;6.482;2023-07-20T03:23:00;16.30;93.10
57218;DHT22;43078;52.972;6.482;2023-07-20T03:25:26;16.30;93.10
57218;DHT22;43078;52.972;6.482;2023-07-20T03:27:51;16.30;93.10
57218;DHT22;43078;52.972;6.482;2023-07-20T03:30:17;16.20;93.10
57218;DHT22;43078;52.972;6.482;2023-07-20T03:32:42;16.20;93.20
57218;DHT22;43078;52.972;6.482;2023-07-20T03:35:08;16.20;93.20
57218;DHT22;43078;52.972;6.482;2023-07-20T03:37:34;16.20;93.20
57218;DHT22;43078;52.972;6.482;2023-07-20T03:40:02;16.10;93.20
57218;DHT22;43078;52.972;6.482;2023-07-20T03:42:28;16.10;93.10
57218;DHT22;43078;52.972;6.482;2023-07-20T03:44:54;16.10;93.10
57218;DHT22;43078;52.972;6.482;2023-07-20T03:47:19;16.00;93.10
57218;DHT22;43078;52.972;6.482;2023-07-20T03:49:45;16.00;93.00
57218;DHT22;43078;52.972;6.482;2023-07-20T03:52:10;15.90;93.00
57218;DHT22;43078;52.972;6.482;2023-07-20T03:54:36;15.90;93.00
57218;DHT22;43078;52.972;6.482;2023-07-20T03:57:02;15.90;93.10
57218;DHT22;43078;52.972;6.482;2023-07-20T03:59:27;15.90;93.20
57218;DHT22;43078;52.972;6.482;2023-07-20T04:01:53;15.80;93.20
57218;DHT22;43078;52.972;6.482;2023-07-20T04:04:19;15.80;93.10
57218;DHT22;43078;52.972;6.482;2023-07-20T04:06:44;15.70;93.10
57218;DHT22;43078;52.972;6.482;2023-07-20T04:09:11;15.70;93.10
57218;DHT22;43078;52.972;6.482;2023-07-20T04:11:37;15.60;93.10
57218;DHT22;43078;52.972;6.482;2023-07-20T04:14:02;15.60;93.10
57218;DHT22;43078;52.972;6.482;2023-07-20T04:16:28;15.50;93.00
57218;DHT22;43078;52.972;6.482;2023-07-20T04:18:57;15.50;93.10
57218;DHT22;43078;52.972;6.482;2023-07-20T04:21:25;15.50;93.00
57218;DHT22;43078;52.972;6.482;2023-07-20T04:23:51;15.40;93.10
57218;DHT22;43078;52.972;6.482;2023-07-20T04:26:16;15.40;93.00
57218;DHT22;43078;52.972;6.482;2023-07-20T04:28:42;15.40;93.00
57218;DHT22;43078;52.972;6.482;2023-07-20T04:31:12;15.30;93.10
57218;DHT22;43078;52.972;6.482;2023-07-20T04:33:38;15.30;92.90
57218;DHT22;43078;52.972;6.482;2023-07-20T04:36:04;15.30;92.90
57218;DHT22;43078;52.972;6.482;2023-07-20T04:38:30;15.20;93.20
57218;DHT22;43078;52.972;6.482;2023-07-20T04:40:55;15.20;93.20
57218;DHT22;43078;52.972;6.482;2023-07-20T04:43:21;15.20;93.40
57218;DHT22;43078;52.972;6.482;2023-07-20T04:45:47;15.20;93.50
57218;DHT22;43078;52.972;6.482;2023-07-20T04:48:14;15.10;93.40
57218;DHT22;43078;52.972;6.482;2023-07-20T04:50:41;15.10;93.40
57218;DHT22;43078;52.972;6.482;2023-07-20T04:53:09;15.10;93.40
57218;DHT22;43078;52.972;6.482;2023-07-20T04:55:36;15.10;93.50
57218;DHT22;43078;52.972;6.482;2023-07-20T04:58:03;15.10;93.60
57218;DHT22;43078;52.972;6.482;2023-07-20T05:00:32;15.10;93.50
57218;DHT22;43078;52.972;6.482;2023-07-20T05:02:58;15.10;93.50
57218;DHT22;43078;52.972;6.482;2023-07-20T05:05:23;15.00;93.50
57218;DHT22;43078;52.972;6.482;2023-07-20T05:07:49;15.00;93.50
57218;DHT22;43078;52.972;6.482;2023-07-20T05:10:15;15.00;93.50
57218;DHT22;43078;52.972;6.482;2023-07-20T05:12:40;15.00;93.40
57218;DHT22;43078;52.972;6.482;2023-07-20T05:15:06;15.00;93.40
57218;DHT22;43078;52.972;6.482;2023-07-20T05:17:32;15.00;93.30
57218;DHT22;43078;52.972;6.482;2023-07-20T05:19:57;15.00;93.60
57218;DHT22;43078;52.972;6.482;2023-07-20T05:22:23;15.00;93.70
57218;DHT22;43078;52.972;6.482;2023-07-20T05:24:50;15.00;93.80
57218;DHT22;43078;52.972;6.482;2023-07-20T05:27:16;14.90;93.90
57218;DHT22;43078;52.972;6.482;2023-07-20T05:29:45;14.90;94.00
57218;DHT22;43078;52.972;6.482;2023-07-20T05:32:12;15.00;94.00
57218;DHT22;43078;52.972;6.482;2023-07-20T05:34:37;14.90;93.90
57218;DHT22;43078;52.972;6.482;2023-07-20T05:37:03;14.90;93.70
57218;DHT22;43078;52.972;6.482;2023-07-20T05:39:28;14.90;93.80
57218;DHT22;43078;52.972;6.482;2023-07-20T05:41:54;14.90;93.70
57218;DHT22;43078;52.972;6.482;2023-07-20T05:44:23;14.90;94.00
57218;DHT22;43078;52.972;6.482;2023-07-20T05:46:48;14.90;93.80
57218;DHT22;43078;52.972;6.482;2023-07-20T05:49:14;15.00;94.00
57218;DHT22;43078;52.972;6.482;2023-07-20T05:51:40;15.00;93.80
57218;DHT22;43078;52.972;6.482;2023-07-20T05:54:05;15.00;94.00
57218;DHT22;43078;52.972;6.482;2023-07-20T05:56:31;15.00;93.90
57218;DHT22;43078;52.972;6.482;2023-07-20T05:58:57;15.00;94.00
57218;DHT22;43078;52.972;6.482;2023-07-20T06:01:23;15.00;94.00
57218;DHT22;43078;52.972;6.482;2023-07-20T06:03:48;15.00;93.80
57218;DHT22;43078;52.972;6.482;2023-07-20T06:06:14;15.00;93.70
57218;DHT22;43078;52.972;6.482;2023-07-20T06:08:40;15.10;93.80
57218;DHT22;43078;52.972;6.482;2023-07-20T06:11:06;15.10;94.10
57218;DHT22;43078;52.972;6.482;2023-07-20T06:13:31;15.10;94.10
57218;DHT22;43078;52.972;6.482;2023-07-20T06:15:57;15.10;94.00
57218;DHT22;43078;52.972;6.482;2023-07-20T06:18:23;15.10;94.30
57218;DHT22;43078;52.972;6.482;2023-07-20T06:20:52;15.10;94.90
57218;DHT22;43078;52.972;6.482;2023-07-20T06:23:19;15.20;95.20
57218;DHT22;43078;52.972;6.482;2023-07-20T06:25:44;15.20;94.60
57218;DHT22;43078;52.972;6.482;2023-07-20T06:28:11;15.20;95.00
57218;DHT22;43078;52.972;6.482;2023-07-20T06:30:37;15.20;95.70
57218;DHT22;43078;52.972;6.482;2023-07-20T06:33:02;15.30;95.50
57218;DHT22;43078;52.972;6.482;2023-07-20T06:35:28;15.30;95.00
57218;DHT22;43078;52.972;6.482;2023-07-20T06:37:54;15.30;94.90
57218;DHT22;43078;52.972;6.482;2023-07-20T06:40:20;15.40;95.00
57218;DHT22;43078;52.972;6.482;2023-07-20T06:42:46;15.50;94.70
57218;DHT22;43078;52.972;6.482;2023-07-20T06:45:11;15.50;95.40
57218;DHT22;43078;52.972;6.482;2023-07-20T06:47:40;15.60;95.50
57218;DHT22;43078;52.972;6.482;2023-07-20T06:50:07;15.70;94.90
57218;DHT22;43078;52.972;6.482;2023-07-20T06:52:33;15.80;94.70
57218;DHT22;43078;52.972;6.482;2023-07-20T06:54:59;15.80;95.10
57218;DHT22;43078;52.972;6.482;2023-07-20T06:57:25;15.90;95.30
57218;DHT22;43078;52.972;6.482;2023-07-20T06:59:51;15.90;95.10
57218;DHT22;43078;52.972;6.482;2023-07-20T07:02:17;16.00;94.90
57218;DHT22;43078;52.972;6.482;2023-07-20T07:04:43;16.10;94.70
57218;DHT22;43078;52.972;6.482;2023-07-20T07:07:09;16.20;94.70
57218;DHT22;43078;52.972;6.482;2023-07-20T07:09:35;16.30;94.80
57218;DHT22;43078;52.972;6.482;2023-07-20T07:12:01;16.40;94.80
57218;DHT22;43078;52.972;6.482;2023-07-20T07:14:26;16.50;94.60
57218;DHT22;43078;52.972;6.482;2023-07-20T07:16:52;16.50;94.50
57218;DHT22;43078;52.972;6.482;2023-07-20T07:19:18;16.60;94.80
57218;DHT22;43078;52.972;6.482;2023-07-20T07:21:43;16.70;94.60
57218;DHT22;43078;52.972;6.482;2023-07-20T07:24:09;16.70;94.50
57218;DHT22;43078;52.972;6.482;2023-07-20T07:26:38;16.80;94.20
57218;DHT22;43078;52.972;6.482;2023-07-20T07:29:04;16.90;93.90
57218;DHT22;43078;52.972;6.482;2023-07-20T07:31:30;17.00;93.80
57218;DHT22;43078;52.972;6.482;2023-07-20T07:33:56;17.10;93.70
57218;DHT22;43078;52.972;6.482;2023-07-20T07:36:22;17.20;93.50
57218;DHT22;43078;52.972;6.482;2023-07-20T07:38:49;17.30;93.40
57218;DHT22;43078;52.972;6.482;2023-07-20T07:41:15;17.40;93.00
57218;DHT22;43078;52.972;6.482;2023-07-20T07:43:41;17.40;93.10
57218;DHT22;43078;52.972;6.482;2023-07-20T07:46:06;17.50;92.30
57218;DHT22;43078;52.972;6.482;2023-07-20T07:48:32;17.60;92.30
57218;DHT22;43078;52.972;6.482;2023-07-20T07:50:58;17.70;92.40
57218;DHT22;43078;52.972;6.482;2023-07-20T07:53:23;17.70;92.40
57218;DHT22;43078;52.972;6.482;2023-07-20T07:55:51;17.80;92.10
57218;DHT22;43078;52.972;6.482;2023-07-20T07:58:17;17.90;92.00
57218;DHT22;43078;52.972;6.482;2023-07-20T08:00:43;18.00;92.10
57218;DHT22;43078;52.972;6.482;2023-07-20T08:03:09;18.10;91.40
57218;DHT22;43078;52.972;6.482;2023-07-20T08:05:35;18.20;91.00
57218;DHT22;43078;52.972;6.482;2023-07-20T08:08:04;18.30;91.40
57218;DHT22;43078;52.972;6.482;2023-07-20T08:10:30;18.30;91.20
57218;DHT22;43078;52.972;6.482;2023-07-20T08:12:56;18.40;91.50
57218;DHT22;43078;52.972;6.482;2023-07-20T08:15:22;18.50;91.10
57218;DHT22;43078;52.972;6.482;2023-07-20T08:17:47;18.60;91.40
57218;DHT22;43078;52.972;6.482;2023-07-20T08:20:14;18.60;91.30
57218;DHT22;43078;52.972;6.482;2023-07-20T08:22:41;18.70;91.10
57218;DHT22;43078;52.972;6.482;2023-07-20T08:25:08;18.80;91.10
57218;DHT22;43078;52.972;6.482;2023-07-20T08:27:34;18.90;90.90
57218;DHT22;43078;52.972;6.482;2023-07-20T08:30:00;18.90;90.70
57218;DHT22;43078;52.972;6.482;2023-07-20T08:32:26;19.00;90.50
57218;DHT22;43078;52.972;6.482;2023-07-20T08:34:52;19.10;89.20
57218;DHT22;43078;52.972;6.482;2023-07-20T08:37:17;19.20;90.60
57218;DHT22;43078;52.972;6.482;2023-07-20T08:39:43;19.30;90.10
57218;DHT22;43078;52.972;6.482;2023-07-20T08:42:09;19.30;86.60
57218;DHT22;43078;52.972;6.482;2023-07-20T08:44:37;19.30;87.40
57218;DHT22;43078;52.972;6.482;2023-07-20T08:47:04;19.40;86.80
57218;DHT22;43078;52.972;6.482;2023-07-20T08:49:34;19.50;87.40
57218;DHT22;43078;52.972;6.482;2023-07-20T08:52:00;19.60;87.10
57218;DHT22;43078;52.972;6.482;2023-07-20T08:54:33;19.70;88.70
57218;DHT22;43078;52.972;6.482;2023-07-20T08:57:01;19.70;88.20
57218;DHT22;43078;52.972;6.482;2023-07-20T08:59:29;19.80;87.90
57218;DHT22;43078;52.972;6.482;2023-07-20T09:01:57;19.80;86.70
57218;DHT22;43078;52.972;6.482;2023-07-20T09:04:23;19.90;87.00
57218;DHT22;43078;52.972;6.482;2023-07-20T09:06:50;20.00;88.80
57218;DHT22;43078;52.972;6.482;2023-07-20T09:09:16;20.10;86.20
57218;DHT22;43078;52.972;6.482;2023-07-20T09:11:42;20.10;85.40
57218;DHT22;43078;52.972;6.482;2023-07-20T09:14:09;20.10;84.40
57218;DHT22;43078;52.972;6.482;2023-07-20T09:16:55;20.20;85.10
57218;DHT22;43078;52.972;6.482;2023-07-20T09:19:22;20.20;81.40
57218;DHT22;43078;52.972;6.482;2023-07-20T09:21:52;20.20;82.40
57218;DHT22;43078;52.972;6.482;2023-07-20T09:24:18;20.20;83.70
57218;DHT22;43078;52.972;6.482;2023-07-20T09:26:45;20.20;82.30
57218;DHT22;43078;52.972;6.482;2023-07-20T09:29:14;20.20;84.20
57218;DHT22;43078;52.972;6.482;2023-07-20T09:31:39;20.30;84.70
57218;DHT22;43078;52.972;6.482;2023-07-20T09:34:06;20.40;85.90
57218;DHT22;43078;52.972;6.482;2023-07-20T09:36:36;20.40;82.70
57218;DHT22;43078;52.972;6.482;2023-07-20T09:39:03;20.50;80.90
57218;DHT22;43078;52.972;6.482;2023-07-20T09:41:29;20.60;85.40
57218;DHT22;43078;52.972;6.482;2023-07-20T09:43:55;20.60;86.30
57218;DHT22;43078;52.972;6.482;2023-07-20T09:46:21;20.70;83.90
57218;DHT22;43078;52.972;6.482;2023-07-20T09:48:53;20.80;84.60
57218;DHT22;43078;52.972;6.482;2023-07-20T09:51:22;20.90;81.40
57218;DHT22;43078;52.972;6.482;2023-07-20T09:53:48;21.00;84.70
57218;DHT22;43078;52.972;6.482;2023-07-20T09:56:16;21.10;83.00
57218;DHT22;43078;52.972;6.482;2023-07-20T09:58:42;21.20;80.90
57218;DHT22;43078;52.972;6.482;2023-07-20T10:01:09;21.20;84.70
57218;DHT22;43078;52.972;6.482;2023-07-20T10:03:37;21.30;86.20
57218;DHT22;43078;52.972;6.482;2023-07-20T10:06:06;21.40;82.10
57218;DHT22;43078;52.972;6.482;2023-07-20T10:08:41;21.50;80.70
57218;DHT22;43078;52.972;6.482;2023-07-20T10:11:08;21.60;80.40
57218;DHT22;43078;52.972;6.482;2023-07-20T10:13:38;21.70;83.30
57218;DHT22;43078;52.972;6.482;2023-07-20T10:16:10;21.80;81.20
57218;DHT22;43078;52.972;6.482;2023-07-20T10:18:51;21.90;77.70
57218;DHT22;43078;52.972;6.482;2023-07-20T10:21:21;22.00;80.00
57218;DHT22;43078;52.972;6.482;2023-07-20T10:23:48;22.00;78.20
57218;DHT22;43078;52.972;6.482;2023-07-20T10:26:15;22.10;78.10
57218;DHT22;43078;52.972;6.482;2023-07-20T10:28:41;22.20;78.60
57218;DHT22;43078;52.972;6.482;2023-07-20T10:31:12;22.20;72.70
57218;DHT22;43078;52.972;6.482;2023-07-20T10:33:38;22.20;77.00
57218;DHT22;43078;52.972;6.482;2023-07-20T10:36:05;22.10;80.40
57218;DHT22;43078;52.972;6.482;2023-07-20T10:41:40;22.10;82.20
57218;DHT22;43078;52.972;6.482;2023-07-20T10:44:07;22.10;81.20
57218;DHT22;43078;52.972;6.482;2023-07-20T10:46:43;22.10;77.50
57218;DHT22;43078;52.972;6.482;2023-07-20T10:49:11;22.00;75.40
57218;DHT22;43078;52.972;6.482;2023-07-20T10:51:48;22.10;80.80
57218;DHT22;43078;52.972;6.482;2023-07-20T10:56:49;22.30;80.00
57218;DHT22;43078;52.972;6.482;2023-07-20T11:02:06;22.40;83.50
57218;DHT22;43078;52.972;6.482;2023-07-20T11:04:52;22.40;82.40
57218;DHT22;43078;52.972;6.482;2023-07-20T11:07:37;22.40;73.00
57218;DHT22;43078;52.972;6.482;2023-07-20T11:10:15;22.40;77.10
57218;DHT22;43078;52.972;6.482;2023-07-20T11:18:25;22.60;81.80
57218;DHT22;43078;52.972;6.482;2023-07-20T11:20:52;22.60;73.50
57218;DHT22;43078;52.972;6.482;2023-07-20T11:23:19;22.70;80.00
57218;DHT22;43078;52.972;6.482;2023-07-20T11:25:45;22.80;78.60
57218;DHT22;43078;52.972;6.482;2023-07-20T11:28:11;22.90;77.00
57218;DHT22;43078;52.972;6.482;2023-07-20T11:30:38;22.90;77.50
57218;DHT22;43078;52.972;6.482;2023-07-20T11:33:04;22.90;80.30
57218;DHT22;43078;52.972;6.482;2023-07-20T11:35:34;23.00;81.50
57218;DHT22;43078;52.972;6.482;2023-07-20T11:38:00;23.00;80.80
57218;DHT22;43078;52.972;6.482;2023-07-20T11:40:26;23.10;82.00
57218;DHT22;43078;52.972;6.482;2023-07-20T11:42:53;23.10;82.70
57218;DHT22;43078;52.972;6.482;2023-07-20T11:45:19;23.20;83.00
57218;DHT22;43078;52.972;6.482;2023-07-20T11:47:45;23.20;80.40
57218;DHT22;43078;52.972;6.482;2023-07-20T11:50:11;23.30;81.80
57218;DHT22;43078;52.972;6.482;2023-07-20T11:52:39;23.30;79.00
57218;DHT22;43078;52.972;6.482;2023-07-20T11:55:06;23.40;81.20
57218;DHT22;43078;52.972;6.482;2023-07-20T11:57:32;23.40;76.90
57218;DHT22;43078;52.972;6.482;2023-07-20T12:00:00;23.50;80.80
57218;DHT22;43078;52.972;6.482;2023-07-20T12:02:28;23.50;80.20
57218;DHT22;43078;52.972;6.482;2023-07-20T12:04:57;23.50;77.40
57218;DHT22;43078;52.972;6.482;2023-07-20T12:07:27;23.60;79.00
57218;DHT22;43078;52.972;6.482;2023-07-20T12:10:45;23.60;80.70
57218;DHT22;43078;52.972;6.482;2023-07-20T12:12:52;23.70;81.00
57218;DHT22;43078;52.972;6.482;2023-07-20T12:15:22;23.70;81.10
57218;DHT22;43078;52.972;6.482;2023-07-20T12:17:52;23.70;75.30
57218;DHT22;43078;52.972;6.482;2023-07-20T12:23:03;23.70;71.80
57218;DHT22;43078;52.972;6.482;2023-07-20T12:25:42;23.70;75.00
57218;DHT22;43078;52.972;6.482;2023-07-20T12:28:17;23.70;76.80
57218;DHT22;43078;52.972;6.482;2023-07-20T12:30:44;23.80;77.80
57218;DHT22;43078;52.972;6.482;2023-07-20T12:33:10;23.80;79.10
57218;DHT22;43078;52.972;6.482;2023-07-20T12:35:37;23.90;78.80
57218;DHT22;43078;52.972;6.482;2023-07-20T12:38:02;23.80;75.80
57218;DHT22;43078;52.972;6.482;2023-07-20T12:40:28;23.80;78.00
57218;DHT22;43078;52.972;6.482;2023-07-20T12:42:54;23.70;76.70
57218;DHT22;43078;52.972;6.482;2023-07-20T12:45:19;23.70;72.10
57218;DHT22;43078;52.972;6.482;2023-07-20T12:47:45;23.70;74.60
57218;DHT22;43078;52.972;6.482;2023-07-20T12:50:11;23.70;77.20
57218;DHT22;43078;52.972;6.482;2023-07-20T12:52:39;23.60;77.20
57218;DHT22;43078;52.972;6.482;2023-07-20T12:55:06;23.60;78.30
57218;DHT22;43078;52.972;6.482;2023-07-20T12:57:33;23.60;70.80
57218;DHT22;43078;52.972;6.482;2023-07-20T12:59:59;23.50;73.20
57218;DHT22;43078;52.972;6.482;2023-07-20T13:02:25;23.50;78.30
57218;DHT22;43078;52.972;6.482;2023-07-20T13:04:50;23.60;80.40
57218;DHT22;43078;52.972;6.482;2023-07-20T13:07:16;23.60;81.60
57218;DHT22;43078;52.972;6.482;2023-07-20T13:09:42;23.70;77.70
57218;DHT22;43078;52.972;6.482;2023-07-20T13:12:08;23.70;80.00
57218;DHT22;43078;52.972;6.482;2023-07-20T13:14:33;23.80;81.40
57218;DHT22;43078;52.972;6.482;2023-07-20T13:16:59;23.80;82.50
57218;DHT22;43078;52.972;6.482;2023-07-20T13:19:25;23.90;82.80
57218;DHT22;43078;52.972;6.482;2023-07-20T13:21:50;23.90;79.10
57218;DHT22;43078;52.972;6.482;2023-07-20T13:24:16;23.90;78.10
57218;DHT22;43078;52.972;6.482;2023-07-20T13:26:42;23.90;80.80
57218;DHT22;43078;52.972;6.482;2023-07-20T13:29:08;23.90;81.30
57218;DHT22;43078;52.972;6.482;2023-07-20T13:31:33;24.00;79.00
57218;DHT22;43078;52.972;6.482;2023-07-20T13:33:59;23.90;79.90
57218;DHT22;43078;52.972;6.482;2023-07-20T13:36:25;24.00;81.90
57218;DHT22;43078;52.972;6.482;2023-07-20T13:38:53;24.00;82.30
57218;DHT22;43078;52.972;6.482;2023-07-20T13:41:19;24.10;82.50
57218;DHT22;43078;52.972;6.482;2023-07-20T13:43:47;24.10;82.70
57218;DHT22;43078;52.972;6.482;2023-07-20T13:46:13;24.10;82.70
57218;DHT22;43078;52.972;6.482;2023-07-20T13:48:39;24.20;82.80
57218;DHT22;43078;52.972;6.482;2023-07-20T13:51:04;24.30;82.90
57218;DHT22;43078;52.972;6.482;2023-07-20T13:53:33;24.30;82.90
57218;DHT22;43078;52.972;6.482;2023-07-20T13:55:59;24.30;82.80
57218;DHT22;43078;52.972;6.482;2023-07-20T13:58:25;24.40;82.80
57218;DHT22;43078;52.972;6.482;2023-07-20T14:00:50;24.40;82.20
57218;DHT22;43078;52.972;6.482;2023-07-20T14:03:16;24.40;82.30
57218;DHT22;43078;52.972;6.482;2023-07-20T14:05:42;24.40;81.60
57218;DHT22;43078;52.972;6.482;2023-07-20T14:08:09;24.40;81.90
57218;DHT22;43078;52.972;6.482;2023-07-20T14:10:34;24.40;81.30
57218;DHT22;43078;52.972;6.482;2023-07-20T14:13:00;24.40;80.70
57218;DHT22;43078;52.972;6.482;2023-07-20T14:15:25;24.40;81.40
57218;DHT22;43078;52.972;6.482;2023-07-20T14:17:51;24.40;81.60
57218;DHT22;43078;52.972;6.482;2023-07-20T14:20:17;24.40;81.70
57218;DHT22;43078;52.972;6.482;2023-07-20T14:22:42;24.50;81.80
57218;DHT22;43078;52.972;6.482;2023-07-20T14:25:09;24.50;81.80
57218;DHT22;43078;52.972;6.482;2023-07-20T14:27:35;24.50;81.00
57218;DHT22;43078;52.972;6.482;2023-07-20T14:30:06;24.40;77.40
57218;DHT22;43078;52.972;6.482;2023-07-20T14:32:35;24.30;75.60
57218;DHT22;43078;52.972;6.482;2023-07-20T14:35:00;24.20;78.60
57218;DHT22;43078;52.972;6.482;2023-07-20T14:37:26;24.10;79.10
57218;DHT22;43078;52.972;6.482;2023-07-20T14:39:52;24.20;80.30
57218;DHT22;43078;52.972;6.482;2023-07-20T14:42:18;24.10;74.40
57218;DHT22;43078;52.972;6.482;2023-07-20T14:44:44;24.20;78.70
57218;DHT22;43078;52.972;6.482;2023-07-20T14:47:09;24.10;75.60
57218;DHT22;43078;52.972;6.482;2023-07-20T14:49:35;24.20;77.80
57218;DHT22;43078;52.972;6.482;2023-07-20T14:52:01;24.10;78.80
57218;DHT22;43078;52.972;6.482;2023-07-20T14:54:27;24.00;71.80
57218;DHT22;43078;52.972;6.482;2023-07-20T14:56:53;24.00;77.30
57218;DHT22;43078;52.972;6.482;2023-07-20T14:59:19;23.90;77.80
57218;DHT22;43078;52.972;6.482;2023-07-20T15:01:45;23.90;74.60
57218;DHT22;43078;52.972;6.482;2023-07-20T15:04:12;23.90;72.80
57218;DHT22;43078;52.972;6.482;2023-07-20T15:06:37;23.90;73.80
57218;DHT22;43078;52.972;6.482;2023-07-20T15:09:03;23.90;74.60
57218;DHT22;43078;52.972;6.482;2023-07-20T15:11:30;23.90;73.70
57218;DHT22;43078;52.972;6.482;2023-07-20T15:13:55;23.90;67.10
57218;DHT22;43078;52.972;6.482;2023-07-20T15:16:23;23.90;63.90
57218;DHT22;43078;52.972;6.482;2023-07-20T15:18:49;23.80;65.00
57218;DHT22;43078;52.972;6.482;2023-07-20T15:21:15;23.80;69.20
57218;DHT22;43078;52.972;6.482;2023-07-20T15:23:41;23.70;74.50
57218;DHT22;43078;52.972;6.482;2023-07-20T15:26:07;23.70;77.50
57218;DHT22;43078;52.972;6.482;2023-07-20T15:28:33;23.70;74.30
57218;DHT22;43078;52.972;6.482;2023-07-20T15:31:03;23.70;73.00
57218;DHT22;43078;52.972;6.482;2023-07-20T15:33:28;23.80;71.70
57218;DHT22;43078;52.972;6.482;2023-07-20T15:35:54;23.80;75.80
57218;DHT22;43078;52.972;6.482;2023-07-20T15:38:20;23.80;72.40
57218;DHT22;43078;52.972;6.482;2023-07-20T15:40:47;23.80;70.80
57218;DHT22;43078;52.972;6.482;2023-07-20T15:43:15;23.90;76.20
57218;DHT22;43078;52.972;6.482;2023-07-20T15:45:40;23.90;76.40
57218;DHT22;43078;52.972;6.482;2023-07-20T15:48:06;23.90;69.50
57218;DHT22;43078;52.972;6.482;2023-07-20T15:50:32;23.80;75.10
57218;DHT22;43078;52.972;6.482;2023-07-20T15:52:57;23.70;76.70